createdAt,value
2018-05-26T00:00:15.110Z,13.90
2018-05-26T00:01:15.078Z,13.50
2018-05-26T00:02:15.117Z,13.50
2018-05-26T00:03:15.005Z,13.50
2018-05-26T00:04:15.071Z,13.50
2018-05-26T00:05:15.007Z,13.50
2018-05-26T00:06:15.083Z,13.50
2018-05-26T00:07:15.117Z,13.50
2018-05-26T00:08:15.122Z,13.50
2018-05-26T00:09:15.130Z,13.50
2018-05-26T00:10:15.026Z,13.50
2018-05-26T00:11:15.031Z,13.50
2018-05-26T00:12:15.157Z,15.80
2018-05-26T00:13:15.069Z,15.80
2018-05-26T00:14:15.018Z,15.80
2018-05-26T00:15:15.107Z,15.80
2018-05-26T00:16:15.063Z,15.80
2018-05-26T00:17:15.054Z,15.80
2018-05-26T00:18:15.123Z,15.80
2018-05-26T00:19:15.031Z,15.80
2018-05-26T00:20:15.054Z,15.80
2018-05-26T00:21:15.031Z,15.80
2018-05-26T00:22:15.026Z,13.80
2018-05-26T00:23:15.048Z,13.80
2018-05-26T00:24:14.985Z,13.80
2018-05-26T00:25:15.034Z,13.80
2018-05-26T00:26:15.151Z,13.80
2018-05-26T00:27:15.076Z,13.80
2018-05-26T00:28:15.103Z,13.80
2018-05-26T00:29:15.029Z,13.80
2018-05-26T00:30:15.104Z,13.80
2018-05-26T00:31:15.032Z,13.80
2018-05-26T00:32:15.133Z,14.70
2018-05-26T00:33:15.027Z,14.70
2018-05-26T00:34:15.111Z,14.70
2018-05-26T00:35:15.113Z,14.70
2018-05-26T00:36:15.026Z,14.70
2018-05-26T00:37:15.102Z,14.70
2018-05-26T00:38:15.046Z,14.70
2018-05-26T00:39:15.089Z,14.70
2018-05-26T00:40:15.135Z,14.70
2018-05-26T00:41:15.073Z,14.70
2018-05-26T00:42:15.107Z,14.90
2018-05-26T00:43:15.127Z,14.90
2018-05-26T00:44:15.146Z,14.90
2018-05-26T00:45:15.107Z,14.90
2018-05-26T00:46:15.034Z,14.90
2018-05-26T00:47:15.133Z,14.90
2018-05-26T00:48:15.147Z,14.90
2018-05-26T00:49:15.083Z,14.90
2018-05-26T00:50:15.073Z,14.90
2018-05-26T00:51:15.144Z,14.90
2018-05-26T00:52:15.058Z,15.90
2018-05-26T00:53:15.082Z,15.90
2018-05-26T00:54:15.093Z,15.90
2018-05-26T00:55:15.157Z,15.90
2018-05-26T00:56:15.141Z,15.90
2018-05-26T00:57:15.121Z,15.90
2018-05-26T00:58:15.025Z,15.90
2018-05-26T00:59:15.142Z,15.90
2018-05-26T01:00:15.140Z,15.90
2018-05-26T01:01:15.087Z,15.90
2018-05-26T01:02:15.125Z,14.20
2018-05-26T01:03:15.093Z,14.20
2018-05-26T01:04:15.124Z,14.20
2018-05-26T01:05:15.285Z,14.20
2018-05-26T01:06:15.128Z,14.20
2018-05-26T01:07:15.058Z,14.20
2018-05-26T01:08:15.062Z,14.20
2018-05-26T01:09:15.016Z,14.20
2018-05-26T01:10:15.131Z,14.20
2018-05-26T01:11:15.059Z,14.20
2018-05-26T01:12:15.053Z,14.00
2018-05-26T01:13:15.122Z,14.00
2018-05-26T01:14:15.082Z,14.00
2018-05-26T01:15:15.055Z,14.00
2018-05-26T01:16:15.124Z,14.00
2018-05-26T01:17:15.056Z,14.00
2018-05-26T01:18:15.126Z,14.00
2018-05-26T01:19:15.055Z,14.00
2018-05-26T01:20:15.126Z,14.00
2018-05-26T01:21:15.056Z,14.00
2018-05-26T01:22:15.132Z,14.30
2018-05-26T01:23:15.117Z,14.30
2018-05-26T01:24:15.137Z,14.30
2018-05-26T01:25:15.135Z,14.30
2018-05-26T01:26:15.037Z,14.30
2018-05-26T01:27:15.120Z,14.30
2018-05-26T01:28:15.115Z,14.30
2018-05-26T01:29:15.099Z,14.30
2018-05-26T01:30:15.141Z,14.30
2018-05-26T01:31:15.175Z,14.30
2018-05-26T01:32:15.163Z,15.40
2018-05-26T01:33:15.142Z,15.40
2018-05-26T01:34:15.103Z,15.40
2018-05-26T01:35:15.146Z,15.40
2018-05-26T01:36:15.151Z,15.40
2018-05-26T01:37:15.065Z,15.40
2018-05-26T01:38:15.050Z,15.40
2018-05-26T01:39:15.063Z,15.40
2018-05-26T01:40:15.113Z,15.40
2018-05-26T01:41:15.107Z,15.40
2018-05-26T01:42:15.145Z,13.10
2018-05-26T01:43:15.128Z,13.10
2018-05-26T01:44:15.186Z,13.10
2018-05-26T01:45:15.086Z,13.10
2018-05-26T01:46:15.146Z,13.10
2018-05-26T01:47:15.208Z,13.10
2018-05-26T01:48:15.108Z,13.10
2018-05-26T01:49:15.089Z,13.10
2018-05-26T01:50:15.172Z,13.10
2018-05-26T01:51:15.191Z,13.10
2018-05-26T01:52:15.149Z,15.00
2018-05-26T01:53:15.107Z,15.00
2018-05-26T01:54:15.072Z,15.00
2018-05-26T01:55:15.149Z,15.00
2018-05-26T01:56:15.076Z,15.00
2018-05-26T01:57:15.153Z,15.00
2018-05-26T01:58:15.151Z,15.00
2018-05-26T01:59:15.081Z,15.00
2018-05-26T02:00:15.153Z,15.00
2018-05-26T02:01:15.155Z,15.00
2018-05-26T02:02:15.136Z,14.90
2018-05-26T02:03:15.159Z,14.90
2018-05-26T02:04:15.125Z,14.90
2018-05-26T02:05:15.224Z,14.90
2018-05-26T02:06:15.180Z,14.90
2018-05-26T02:07:15.175Z,14.90
2018-05-26T02:08:15.189Z,14.90
2018-05-26T02:09:15.134Z,14.90
2018-05-26T02:10:15.199Z,14.90
2018-05-26T02:11:15.226Z,14.90
2018-05-26T02:12:15.105Z,15.80
2018-05-26T02:13:15.136Z,15.80
2018-05-26T02:14:15.227Z,15.80
2018-05-26T02:15:15.110Z,15.80
2018-05-26T02:16:15.093Z,15.80
2018-05-26T02:17:15.152Z,15.80
2018-05-26T02:18:15.205Z,15.80
2018-05-26T02:19:15.144Z,15.80
2018-05-26T02:20:15.196Z,15.80
2018-05-26T02:21:15.188Z,15.80
2018-05-26T02:22:15.180Z,18.99
2018-05-26T02:23:15.201Z,18.99
2018-05-26T02:24:15.113Z,18.99
2018-05-26T02:25:15.116Z,18.99
2018-05-26T02:26:15.083Z,18.99
2018-05-26T02:27:15.187Z,18.99
2018-05-26T02:28:15.154Z,18.99
2018-05-26T02:29:15.138Z,18.99
2018-05-26T02:30:15.252Z,18.99
2018-05-26T02:31:15.212Z,18.99
2018-05-26T02:32:15.159Z,13.50
2018-05-26T02:33:15.119Z,13.50
2018-05-26T02:34:15.141Z,13.50
2018-05-26T02:35:15.156Z,13.50
2018-05-26T02:36:15.200Z,13.50
2018-05-26T02:37:15.184Z,13.50
2018-05-26T02:38:15.161Z,13.50
2018-05-26T02:39:15.151Z,13.50
2018-05-26T02:40:15.104Z,13.50
2018-05-26T02:41:15.122Z,13.50
2018-05-26T02:42:15.228Z,16.20
2018-05-26T02:43:15.189Z,16.20
2018-05-26T02:44:15.246Z,16.20
2018-05-26T02:45:15.187Z,16.20
2018-05-26T02:46:15.192Z,16.20
2018-05-26T02:47:15.191Z,16.20
2018-05-26T02:48:15.214Z,16.20
2018-05-26T02:49:15.249Z,16.20
2018-05-26T02:50:15.224Z,16.20
2018-05-26T02:51:15.109Z,16.20
2018-05-26T02:52:15.155Z,13.90
2018-05-26T02:53:15.147Z,13.90
2018-05-26T02:54:15.169Z,13.90
2018-05-26T02:55:15.133Z,13.90
2018-05-26T02:56:15.124Z,13.90
2018-05-26T02:57:15.218Z,13.90
2018-05-26T02:58:15.257Z,13.90
2018-05-26T02:59:15.203Z,13.90
2018-05-26T03:00:15.129Z,13.90
2018-05-26T03:01:15.206Z,13.90
2018-05-26T03:02:15.131Z,13.80
2018-05-26T03:03:15.205Z,13.80
2018-05-26T03:04:15.134Z,13.80
2018-05-26T03:05:15.093Z,13.80
2018-05-26T03:06:15.205Z,13.80
2018-05-26T03:07:15.161Z,13.80
2018-05-26T03:08:15.135Z,13.80
2018-05-26T03:09:15.211Z,13.80
2018-05-26T03:10:15.204Z,13.80
2018-05-26T03:11:15.097Z,13.80
2018-05-26T03:12:15.250Z,12.90
2018-05-26T03:13:15.194Z,12.90
2018-05-26T03:14:15.266Z,12.90
2018-05-26T03:15:15.174Z,12.90
2018-05-26T03:16:15.247Z,12.90
2018-05-26T03:17:15.148Z,12.90
2018-05-26T03:18:15.199Z,12.90
2018-05-26T03:19:15.247Z,12.90
2018-05-26T03:20:15.182Z,12.90
2018-05-26T03:21:15.185Z,12.90
2018-05-26T03:22:15.209Z,14.60
2018-05-26T03:23:15.187Z,14.60
2018-05-26T03:24:15.244Z,14.60
2018-05-26T03:25:15.179Z,14.60
2018-05-26T03:26:15.157Z,14.60
2018-05-26T03:27:15.170Z,14.60
2018-05-26T03:28:15.215Z,14.60
2018-05-26T03:29:15.136Z,14.60
2018-05-26T03:30:15.221Z,14.60
2018-05-26T03:31:15.193Z,14.60
2018-05-26T03:32:15.240Z,13.20
2018-05-26T03:33:15.135Z,13.20
2018-05-26T03:34:15.234Z,13.20
2018-05-26T03:35:15.138Z,13.20
2018-05-26T03:36:15.238Z,13.20
2018-05-26T03:37:15.144Z,13.20
2018-05-26T03:38:15.192Z,13.20
2018-05-26T03:39:15.194Z,13.20
2018-05-26T03:40:15.221Z,13.20
2018-05-26T03:41:15.241Z,13.20
2018-05-26T03:42:15.236Z,12.10
2018-05-26T03:43:15.162Z,12.10
2018-05-26T03:44:15.128Z,12.10
2018-05-26T03:45:15.189Z,12.10
2018-05-26T03:46:15.259Z,12.10
2018-05-26T03:47:15.244Z,12.10
2018-05-26T03:48:15.151Z,12.10
2018-05-26T03:49:15.145Z,12.10
2018-05-26T03:50:15.259Z,12.10
2018-05-26T03:51:15.200Z,12.10
2018-05-26T03:52:15.228Z,12.80
2018-05-26T03:53:15.159Z,12.80
2018-05-26T03:54:15.226Z,12.80
2018-05-26T03:55:15.231Z,12.80
2018-05-26T03:56:15.231Z,12.80
2018-05-26T03:57:15.234Z,12.80
2018-05-26T03:58:15.234Z,12.80
2018-05-26T03:59:15.244Z,12.80
2018-05-26T04:00:15.193Z,12.80
2018-05-26T04:01:15.237Z,12.80
2018-05-26T04:02:15.276Z,13.90
2018-05-26T04:03:15.174Z,13.90
2018-05-26T04:04:15.147Z,13.90
2018-05-26T04:05:15.277Z,13.90
2018-05-26T04:06:15.263Z,13.90
2018-05-26T04:07:15.268Z,13.90
2018-05-26T04:08:15.149Z,13.90
2018-05-26T04:09:15.211Z,13.90
2018-05-26T04:10:15.239Z,13.90
2018-05-26T04:11:15.237Z,13.90
2018-05-26T04:12:15.219Z,12.70
2018-05-26T04:13:15.239Z,12.70
2018-05-26T04:14:15.216Z,12.70
2018-05-26T04:15:15.325Z,12.70
2018-05-26T04:16:15.245Z,12.70
2018-05-26T04:17:15.226Z,12.70
2018-05-26T04:18:15.189Z,12.70
2018-05-26T04:19:15.276Z,12.70
2018-05-26T04:20:15.226Z,12.70
2018-05-26T04:21:15.248Z,12.70
2018-05-26T04:22:15.181Z,13.80
2018-05-26T04:23:15.182Z,13.80
2018-05-26T04:24:15.249Z,13.80
2018-05-26T04:25:15.183Z,13.80
2018-05-26T04:26:15.210Z,13.80
2018-05-26T04:27:15.256Z,13.80
2018-05-26T04:28:15.243Z,13.80
2018-05-26T04:29:15.227Z,13.80
2018-05-26T04:30:15.257Z,13.80
2018-05-26T04:31:15.190Z,13.80
2018-05-26T04:32:15.193Z,15.40
2018-05-26T04:33:15.160Z,15.40
2018-05-26T04:34:15.263Z,15.40
2018-05-26T04:35:15.184Z,15.40
2018-05-26T04:36:15.260Z,15.40
2018-05-26T04:37:15.183Z,15.40
2018-05-26T04:38:15.280Z,15.40
2018-05-26T04:39:15.263Z,15.40
2018-05-26T04:40:15.305Z,15.40
2018-05-26T04:41:15.279Z,15.40
2018-05-26T04:42:15.269Z,17.80
2018-05-26T04:43:15.164Z,17.80
2018-05-26T04:44:15.277Z,17.80
2018-05-26T04:45:15.191Z,17.80
2018-05-26T04:46:15.226Z,17.80
2018-05-26T04:47:15.298Z,17.80
2018-05-26T04:48:15.302Z,17.80
2018-05-26T04:49:15.250Z,17.80
2018-05-26T04:50:15.223Z,17.80
2018-05-26T04:51:15.286Z,17.80
2018-05-26T04:52:15.202Z,16.90
2018-05-26T04:53:15.273Z,16.90
2018-05-26T04:54:15.201Z,16.90
2018-05-26T04:55:15.271Z,16.90
2018-05-26T04:56:15.236Z,16.90
2018-05-26T04:57:15.220Z,16.90
2018-05-26T04:58:15.205Z,16.90
2018-05-26T04:59:15.207Z,16.90
2018-05-26T05:00:15.275Z,16.90
2018-05-26T05:01:15.279Z,16.90
2018-05-26T05:02:15.259Z,18.10
2018-05-26T05:03:15.272Z,18.10
2018-05-26T05:04:15.312Z,18.10
2018-05-26T05:05:15.299Z,18.10
2018-05-26T05:06:15.297Z,18.10
2018-05-26T05:07:15.243Z,18.10
2018-05-26T05:08:15.280Z,18.10
2018-05-26T05:09:15.281Z,18.10
2018-05-26T05:10:15.217Z,18.10
2018-05-26T05:11:15.302Z,18.10
2018-05-26T05:12:15.302Z,18.40
2018-05-26T05:13:15.319Z,18.40
2018-05-26T05:14:15.366Z,18.40
2018-05-26T05:15:15.312Z,18.40
2018-05-26T05:16:15.316Z,18.40
2018-05-26T05:17:15.323Z,18.40
2018-05-26T05:18:15.255Z,18.40
2018-05-26T05:19:15.307Z,18.40
2018-05-26T05:20:15.286Z,18.40
2018-05-26T05:21:15.292Z,18.40
2018-05-26T05:22:15.221Z,21.20
2018-05-26T05:23:15.293Z,21.20
2018-05-26T05:24:15.290Z,21.20
2018-05-26T05:25:15.295Z,21.20
2018-05-26T05:26:15.302Z,21.20
2018-05-26T05:27:15.229Z,21.20
2018-05-26T05:28:15.294Z,21.20
2018-05-26T05:29:15.297Z,21.20
2018-05-26T05:30:15.297Z,21.20
2018-05-26T05:31:15.229Z,21.20
2018-05-26T05:32:15.331Z,20.10
2018-05-26T05:33:15.312Z,20.10
2018-05-26T05:34:15.322Z,20.10
2018-05-26T05:35:15.277Z,20.10
2018-05-26T05:36:15.257Z,20.10
2018-05-26T05:37:15.297Z,20.10
2018-05-26T05:38:15.300Z,20.10
2018-05-26T05:39:15.218Z,20.10
2018-05-26T05:40:15.257Z,20.10
2018-05-26T05:41:15.336Z,20.10
2018-05-26T05:42:15.316Z,20.30
2018-05-26T05:43:15.301Z,20.30
2018-05-26T05:44:15.240Z,20.30
2018-05-26T05:45:15.324Z,20.30
2018-05-26T05:46:15.225Z,20.30
2018-05-26T05:47:15.322Z,20.30
2018-05-26T05:48:15.269Z,20.30
2018-05-26T05:49:15.245Z,20.30
2018-05-26T05:50:15.211Z,20.30
2018-05-26T05:51:15.288Z,20.30
2018-05-26T05:52:15.308Z,19.60
2018-05-26T05:53:15.240Z,19.60
2018-05-26T05:54:15.243Z,19.60
2018-05-26T05:55:15.310Z,19.60
2018-05-26T05:56:15.344Z,19.60
2018-05-26T05:57:15.242Z,19.60
2018-05-26T05:58:15.244Z,19.60
2018-05-26T05:59:15.316Z,19.60
2018-05-26T06:00:15.244Z,19.60
2018-05-26T06:01:15.315Z,19.60
2018-05-26T06:02:15.313Z,21.20
2018-05-26T06:03:15.289Z,21.20
2018-05-26T06:04:15.288Z,21.20
2018-05-26T06:05:15.218Z,21.20
2018-05-26T06:06:15.318Z,21.20
2018-05-26T06:07:15.279Z,21.20
2018-05-26T06:08:15.351Z,21.20
2018-05-26T06:09:15.360Z,21.20
2018-05-26T06:10:15.216Z,21.20
2018-05-26T06:11:15.401Z,21.20
2018-05-26T06:12:15.292Z,21.20
2018-05-26T06:13:15.313Z,17.70
2018-05-26T06:14:15.314Z,17.70
2018-05-26T06:15:15.310Z,17.70
2018-05-26T06:16:15.316Z,17.70
2018-05-26T06:17:15.315Z,17.70
2018-05-26T06:18:15.203Z,17.70
2018-05-26T06:19:15.198Z,17.70
2018-05-26T06:20:15.254Z,17.70
2018-05-26T06:21:15.252Z,17.70
2018-05-26T06:22:15.323Z,17.70
2018-05-26T06:23:15.223Z,20.60
2018-05-26T06:24:15.259Z,20.60
2018-05-26T06:25:15.328Z,20.60
2018-05-26T06:26:15.332Z,20.60
2018-05-26T06:27:15.265Z,20.60
2018-05-26T06:28:15.330Z,20.60
2018-05-26T06:29:15.332Z,20.60
2018-05-26T06:30:15.271Z,20.60
2018-05-26T06:31:15.266Z,20.60
2018-05-26T06:32:15.269Z,20.60
2018-05-26T06:33:15.270Z,16.99
2018-05-26T06:34:15.239Z,16.99
2018-05-26T06:35:15.215Z,16.99
2018-05-26T06:36:15.269Z,16.99
2018-05-26T06:37:15.276Z,16.99
2018-05-26T06:38:15.297Z,16.99
2018-05-26T06:39:15.261Z,16.99
2018-05-26T06:40:15.334Z,16.99
2018-05-26T06:41:15.335Z,16.99
2018-05-26T06:42:15.268Z,16.99
2018-05-26T06:43:15.349Z,16.70
2018-05-26T06:44:15.364Z,16.70
2018-05-26T06:45:15.286Z,16.70
2018-05-26T06:46:15.302Z,16.70
2018-05-26T06:47:15.370Z,16.70
2018-05-26T06:48:15.261Z,16.70
2018-05-26T06:49:15.344Z,16.70
2018-05-26T06:50:15.269Z,16.70
2018-05-26T06:51:15.288Z,16.70
2018-05-26T06:52:15.267Z,16.70
2018-05-26T06:53:15.322Z,15.60
2018-05-26T06:54:15.382Z,15.60
2018-05-26T06:55:15.315Z,15.60
2018-05-26T06:56:15.368Z,15.60
2018-05-26T06:57:15.381Z,15.60
2018-05-26T06:58:15.355Z,15.60
2018-05-26T06:59:15.272Z,15.60
2018-05-26T07:00:15.364Z,15.60
2018-05-26T07:01:15.276Z,15.60
2018-05-26T07:02:15.256Z,15.60
2018-05-26T07:03:15.358Z,14.60
2018-05-26T07:04:15.395Z,14.60
2018-05-26T07:05:15.310Z,14.60
2018-05-26T07:06:15.332Z,14.60
2018-05-26T07:07:15.399Z,14.60
2018-05-26T07:08:15.278Z,14.60
2018-05-26T07:09:15.362Z,14.60
2018-05-26T07:10:15.280Z,14.60
2018-05-26T07:11:15.417Z,14.60
2018-05-26T07:12:15.326Z,14.60
2018-05-26T07:13:15.438Z,14.70
2018-05-26T07:14:15.298Z,14.70
2018-05-26T07:15:15.362Z,14.70
2018-05-26T07:16:15.391Z,14.70
2018-05-26T07:17:15.303Z,14.70
2018-05-26T07:18:15.383Z,14.70
2018-05-26T07:19:15.383Z,14.70
2018-05-26T07:20:15.405Z,14.70
2018-05-26T07:21:15.364Z,14.70
2018-05-26T07:22:15.400Z,14.70
2018-05-26T07:23:15.320Z,11.00
2018-05-26T07:24:15.314Z,11.00
2018-05-26T07:25:15.269Z,11.00
2018-05-26T07:26:15.346Z,11.00
2018-05-26T07:27:15.320Z,11.00
2018-05-26T07:28:15.245Z,11.00
2018-05-26T07:29:15.327Z,11.00
2018-05-26T07:30:15.295Z,11.00
2018-05-26T07:31:15.319Z,11.00
2018-05-26T07:32:15.356Z,11.00
2018-05-26T07:33:15.336Z,10.60
2018-05-26T07:34:15.344Z,10.60
2018-05-26T07:35:15.353Z,10.60
2018-05-26T07:36:15.312Z,10.60
2018-05-26T07:37:15.347Z,10.60
2018-05-26T07:38:15.340Z,10.60
2018-05-26T07:39:15.407Z,10.60
2018-05-26T07:40:15.299Z,10.60
2018-05-26T07:41:15.354Z,10.60
2018-05-26T07:42:15.403Z,10.60
2018-05-26T07:43:15.410Z,9.20
2018-05-26T07:44:15.296Z,9.20
2018-05-26T07:45:15.351Z,9.20
2018-05-26T07:46:15.394Z,9.20
2018-05-26T07:47:15.427Z,9.20
2018-05-26T07:48:15.340Z,9.20
2018-05-26T07:49:15.303Z,9.20
2018-05-26T07:50:15.426Z,9.20
2018-05-26T07:51:15.322Z,9.20
2018-05-26T07:52:15.419Z,9.20
2018-05-26T07:53:15.327Z,9.30
2018-05-26T07:54:15.316Z,9.30
2018-05-26T07:55:15.379Z,9.30
2018-05-26T07:56:15.384Z,9.30
2018-05-26T07:57:15.319Z,9.30
2018-05-26T07:58:15.353Z,9.30
2018-05-26T07:59:15.392Z,9.30
2018-05-26T08:00:15.321Z,9.30
2018-05-26T08:01:15.389Z,9.30
2018-05-26T08:02:15.353Z,9.30
2018-05-26T08:03:15.388Z,8.30
2018-05-26T08:04:15.332Z,8.30
2018-05-26T08:05:15.389Z,8.30
2018-05-26T08:06:15.327Z,8.30
2018-05-26T08:07:15.391Z,8.30
2018-05-26T08:08:15.347Z,8.30
2018-05-26T08:09:15.329Z,8.30
2018-05-26T08:10:15.397Z,8.30
2018-05-26T08:11:15.328Z,8.30
2018-05-26T08:12:15.396Z,8.30
2018-05-26T08:13:15.398Z,6.80
2018-05-26T08:14:15.397Z,6.80
2018-05-26T08:15:15.374Z,6.80
2018-05-26T08:16:15.373Z,6.80
2018-05-26T08:17:15.413Z,6.80
2018-05-26T08:18:15.419Z,6.80
2018-05-26T08:19:15.323Z,6.80
2018-05-26T08:20:15.380Z,6.80
2018-05-26T08:21:15.441Z,6.80
2018-05-26T08:22:15.426Z,6.80
2018-05-26T08:23:15.401Z,6.10
2018-05-26T08:24:15.403Z,6.10
2018-05-26T08:25:15.339Z,6.10
2018-05-26T08:26:15.404Z,6.10
2018-05-26T08:27:15.408Z,6.10
2018-05-26T08:28:15.405Z,6.10
2018-05-26T08:29:15.350Z,6.10
2018-05-26T08:30:15.411Z,6.10
2018-05-26T08:31:15.341Z,6.10
2018-05-26T08:32:15.410Z,6.10
2018-05-26T08:33:15.311Z,7.10
2018-05-26T08:34:15.402Z,7.10
2018-05-26T08:35:15.404Z,7.10
2018-05-26T08:36:15.314Z,7.10
2018-05-26T08:37:15.408Z,7.10
2018-05-26T08:38:15.359Z,7.10
2018-05-26T08:39:15.412Z,7.10
2018-05-26T08:40:15.364Z,7.10
2018-05-26T08:41:15.426Z,7.10
2018-05-26T08:42:15.409Z,7.10
2018-05-26T08:43:15.391Z,6.50
2018-05-26T08:44:15.437Z,6.50
2018-05-26T08:45:15.317Z,6.50
2018-05-26T08:46:15.445Z,6.50
2018-05-26T08:47:15.381Z,6.50
2018-05-26T08:48:15.419Z,6.50
2018-05-26T08:49:15.458Z,6.50
2018-05-26T08:50:15.458Z,6.50
2018-05-26T08:51:15.394Z,6.50
2018-05-26T08:52:15.439Z,6.50
2018-05-26T08:53:15.356Z,6.50
2018-05-26T08:54:15.357Z,6.50
2018-05-26T08:55:15.426Z,6.50
2018-05-26T08:56:15.425Z,6.50
2018-05-26T08:57:15.325Z,6.50
2018-05-26T08:58:15.428Z,6.50
2018-05-26T08:59:15.372Z,6.50
2018-05-26T09:00:15.430Z,6.50
2018-05-26T09:01:15.364Z,6.50
2018-05-26T09:02:15.425Z,6.50
2018-05-26T09:03:15.362Z,5.99
2018-05-26T09:04:15.363Z,5.99
2018-05-26T09:05:15.428Z,5.99
2018-05-26T09:06:15.368Z,5.99
2018-05-26T09:07:15.436Z,5.99
2018-05-26T09:08:15.368Z,5.99
2018-05-26T09:09:15.523Z,5.99
2018-05-26T09:10:15.435Z,5.99
2018-05-26T09:11:15.391Z,5.99
2018-05-26T09:12:15.433Z,5.99
2018-05-26T09:13:15.300Z,6.00
2018-05-26T09:14:15.330Z,6.00
2018-05-26T09:15:15.417Z,6.00
2018-05-26T09:16:15.402Z,6.00
2018-05-26T09:17:15.328Z,6.00
2018-05-26T09:18:15.328Z,6.00
2018-05-26T09:19:15.397Z,6.00
2018-05-26T09:20:15.317Z,6.00
2018-05-26T09:21:15.393Z,6.00
2018-05-26T09:22:15.377Z,6.00
2018-05-26T09:23:15.418Z,6.30
2018-05-26T09:24:15.340Z,6.30
2018-05-26T09:25:15.537Z,6.30
2018-05-26T09:26:15.446Z,6.30
2018-05-26T09:27:15.472Z,6.30
2018-05-26T09:28:15.485Z,6.30
2018-05-26T09:29:15.447Z,6.30
2018-05-26T09:30:15.484Z,6.30
2018-05-26T09:31:15.530Z,6.30
2018-05-26T09:32:15.444Z,6.30
2018-05-26T09:33:15.450Z,6.60
2018-05-26T09:34:15.390Z,6.60
2018-05-26T09:35:15.476Z,6.60
2018-05-26T09:36:15.353Z,6.60
2018-05-26T09:37:15.361Z,6.60
2018-05-26T09:38:15.411Z,6.60
2018-05-26T09:39:15.473Z,6.60
2018-05-26T09:40:15.356Z,6.60
2018-05-26T09:41:15.478Z,6.60
2018-05-26T09:42:15.425Z,6.60
2018-05-26T09:43:15.434Z,6.40
2018-05-26T09:44:15.456Z,6.40
2018-05-26T09:45:15.436Z,6.40
2018-05-26T09:46:15.454Z,6.40
2018-05-26T09:47:15.460Z,6.40
2018-05-26T09:48:15.416Z,6.40
2018-05-26T09:49:15.479Z,6.40
2018-05-26T09:50:15.477Z,6.40
2018-05-26T09:51:15.358Z,6.40
2018-05-26T09:52:15.458Z,6.40
2018-05-26T09:53:15.424Z,6.50
2018-05-26T09:54:15.362Z,6.50
2018-05-26T09:55:15.365Z,6.50
2018-05-26T09:56:15.465Z,6.50
2018-05-26T09:57:15.485Z,6.50
2018-05-26T09:58:15.444Z,6.50
2018-05-26T09:59:15.369Z,6.50
2018-05-26T10:00:15.484Z,6.50
2018-05-26T10:01:15.374Z,6.50
2018-05-26T10:02:15.494Z,6.50
2018-05-26T10:03:15.401Z,5.00
2018-05-26T10:04:15.428Z,5.00
2018-05-26T10:06:15.422Z,5.00
2018-05-26T10:07:15.455Z,5.00
2018-05-26T10:08:15.425Z,5.00
2018-05-26T10:09:15.463Z,5.00
2018-05-26T10:10:15.470Z,5.00
2018-05-26T10:11:15.378Z,5.00
2018-05-26T10:12:15.476Z,5.00
2018-05-26T10:13:15.445Z,6.10
2018-05-26T10:14:15.449Z,6.10
2018-05-26T10:15:15.441Z,6.10
2018-05-26T10:16:15.514Z,6.10
2018-05-26T10:17:15.451Z,6.10
2018-05-26T10:18:15.463Z,6.10
2018-05-26T10:19:15.382Z,6.10
2018-05-26T10:20:15.460Z,6.10
2018-05-26T10:21:15.450Z,6.10
2018-05-26T10:22:15.500Z,6.10
2018-05-26T10:23:15.429Z,5.70
2018-05-26T10:24:15.498Z,5.70
2018-05-26T10:25:15.466Z,5.70
2018-05-26T10:26:15.397Z,5.70
2018-05-26T10:27:15.515Z,5.70
2018-05-26T10:28:15.393Z,5.70
2018-05-26T10:29:15.505Z,5.70
2018-05-26T10:30:15.503Z,5.70
2018-05-26T10:31:15.462Z,5.70
2018-05-26T10:32:15.476Z,5.70
2018-05-26T10:33:15.470Z,4.90
2018-05-26T10:34:15.530Z,4.90
2018-05-26T10:35:15.516Z,4.90
2018-05-26T10:36:15.531Z,4.90
2018-05-26T10:37:15.513Z,4.90
2018-05-26T10:38:15.517Z,4.90
2018-05-26T10:39:15.520Z,4.90
2018-05-26T10:40:15.467Z,4.90
2018-05-26T10:41:15.471Z,4.90
2018-05-26T10:42:15.496Z,4.90
2018-05-26T10:43:15.431Z,4.70
2018-05-26T10:44:15.495Z,4.70
2018-05-26T10:45:15.430Z,4.70
2018-05-26T10:46:15.498Z,4.70
2018-05-26T10:47:15.500Z,4.70
2018-05-26T10:48:15.503Z,4.70
2018-05-26T10:49:15.499Z,4.70
2018-05-26T10:50:15.503Z,4.70
2018-05-26T10:51:15.499Z,4.70
2018-05-26T10:52:15.566Z,4.70
2018-05-26T10:53:15.360Z,4.40
2018-05-26T10:54:15.450Z,4.40
2018-05-26T10:55:15.489Z,4.40
2018-05-26T10:56:15.400Z,4.40
2018-05-26T10:57:15.398Z,4.40
2018-05-26T10:58:15.491Z,4.40
2018-05-26T10:59:15.435Z,4.40
2018-05-26T11:00:15.395Z,4.40
2018-05-26T11:01:15.399Z,4.40
2018-05-26T11:02:15.405Z,4.40
2018-05-26T11:03:15.528Z,4.99
2018-05-26T11:04:15.594Z,4.99
2018-05-26T11:05:15.489Z,4.99
2018-05-26T11:06:15.546Z,4.99
2018-05-26T11:07:15.534Z,4.99
2018-05-26T11:08:15.541Z,4.99
2018-05-26T11:09:15.533Z,4.99
2018-05-26T11:10:15.531Z,4.99
2018-05-26T11:11:15.484Z,4.99
2018-05-26T11:12:15.414Z,4.99
2018-05-26T11:13:15.448Z,5.99
2018-05-26T11:14:15.511Z,5.99
2018-05-26T11:15:15.452Z,5.99
2018-05-26T11:16:15.760Z,5.99
2018-05-26T11:17:15.450Z,5.99
2018-05-26T11:18:15.517Z,5.99
2018-05-26T11:19:15.452Z,5.99
2018-05-26T11:20:15.537Z,5.99
2018-05-26T11:21:15.548Z,5.99
2018-05-26T11:22:15.522Z,5.99
2018-05-26T11:23:15.504Z,4.40
2018-05-26T11:24:15.644Z,4.40
2018-05-26T11:25:15.425Z,4.40
2018-05-26T11:26:15.528Z,4.40
2018-05-26T11:27:15.491Z,4.40
2018-05-26T11:28:15.494Z,4.40
2018-05-26T11:29:15.528Z,4.40
2018-05-26T11:30:15.495Z,4.40
2018-05-26T11:31:15.545Z,4.40
2018-05-26T11:32:15.493Z,4.40
2018-05-26T11:33:15.543Z,5.20
2018-05-26T11:34:15.548Z,5.20
2018-05-26T11:35:15.494Z,5.20
2018-05-26T11:36:15.554Z,5.20
2018-05-26T11:37:15.436Z,5.20
2018-05-26T11:38:15.558Z,5.20
2018-05-26T11:39:15.553Z,5.20
2018-05-26T11:40:15.536Z,5.20
2018-05-26T11:41:15.544Z,5.20
2018-05-26T11:42:15.505Z,5.20
2018-05-26T11:43:15.531Z,5.70
2018-05-26T11:44:15.498Z,5.70
2018-05-26T11:45:15.579Z,5.70
2018-05-26T11:46:15.559Z,5.70
2018-05-26T11:47:15.497Z,5.70
2018-05-26T11:48:15.571Z,5.70
2018-05-26T11:49:15.564Z,5.70
2018-05-26T11:50:15.566Z,5.70
2018-05-26T11:51:15.575Z,5.70
2018-05-26T11:52:15.448Z,5.70
2018-05-26T11:53:15.527Z,5.00
2018-05-26T11:54:15.538Z,5.00
2018-05-26T11:55:15.532Z,5.00
2018-05-26T11:56:15.536Z,5.00
2018-05-26T11:57:15.538Z,5.00
2018-05-26T11:58:15.452Z,5.00
2018-05-26T11:59:15.537Z,5.00
2018-05-26T12:00:15.429Z,5.00
2018-05-26T12:01:15.454Z,5.00
2018-05-26T12:02:15.546Z,5.00
2018-05-26T12:03:15.576Z,3.70
2018-05-26T12:04:15.575Z,3.70
2018-05-26T12:05:15.572Z,3.70
2018-05-26T12:06:15.560Z,3.70
2018-05-26T12:07:15.520Z,3.70
2018-05-26T12:08:15.549Z,3.70
2018-05-26T12:09:15.550Z,3.70
2018-05-26T12:10:15.586Z,3.70
2018-05-26T12:11:15.450Z,3.70
2018-05-26T12:12:15.519Z,3.70
2018-05-26T12:13:15.508Z,3.70
2018-05-26T12:14:15.534Z,3.70
2018-05-26T12:15:15.554Z,3.70
2018-05-26T12:16:15.455Z,3.70
2018-05-26T12:17:15.540Z,3.70
2018-05-26T12:18:15.532Z,3.70
2018-05-26T12:19:15.537Z,3.70
2018-05-26T12:20:15.539Z,3.70
2018-05-26T12:21:15.533Z,3.70
2018-05-26T12:22:15.558Z,3.70
2018-05-26T12:23:15.584Z,3.40
2018-05-26T12:24:15.519Z,3.40
2018-05-26T12:25:15.584Z,3.40
2018-05-26T12:26:15.544Z,3.40
2018-05-26T12:27:15.569Z,3.40
2018-05-26T12:28:15.592Z,3.40
2018-05-26T12:29:15.523Z,3.40
2018-05-26T12:30:15.484Z,3.40
2018-05-26T12:31:15.548Z,3.40
2018-05-26T12:32:15.475Z,3.40
2018-05-26T12:33:15.563Z,4.90
2018-05-26T12:34:15.524Z,4.90
2018-05-26T12:35:15.533Z,4.90
2018-05-26T12:36:15.507Z,4.90
2018-05-26T12:37:15.571Z,4.90
2018-05-26T12:38:15.507Z,4.90
2018-05-26T12:39:15.506Z,4.90
2018-05-26T12:40:15.532Z,4.90
2018-05-26T12:41:15.610Z,4.90
2018-05-26T12:42:15.551Z,4.90
2018-05-26T12:43:15.468Z,4.90
2018-05-26T12:44:15.563Z,5.00
2018-05-26T12:46:15.504Z,5.00
2018-05-26T12:47:15.560Z,5.00
2018-05-26T12:48:15.480Z,5.00
2018-05-26T12:49:15.461Z,5.00
2018-05-26T12:50:15.527Z,5.00
2018-05-26T12:51:15.569Z,5.00
2018-05-26T12:52:15.609Z,5.00
2018-05-26T12:53:15.453Z,5.00
2018-05-26T12:54:15.510Z,4.60
2018-05-26T12:55:15.515Z,4.60
2018-05-26T12:56:15.516Z,4.60
2018-05-26T12:57:15.585Z,4.60
2018-05-26T12:58:15.582Z,4.60
2018-05-26T12:59:15.582Z,4.60
2018-05-26T13:00:15.589Z,4.60
2018-05-26T13:01:15.543Z,4.60
2018-05-26T13:02:15.585Z,4.60
2018-05-26T13:03:15.538Z,4.60
2018-05-26T13:04:15.618Z,5.30
2018-05-26T13:05:15.627Z,5.30